sensor_id;sensor_type;location;lat;lon;timestamp;pressure;altitude;pressure_sealevel;temperature;humidity
30081;BME280;16902;50.816;12.828;2023-09-19T00:02:56;97087.09;;;15.65;100.00
30081;BME280;16902;50.816;12.828;2023-09-19T00:07:59;97094.72;;;15.79;100.00
30081;BME280;16902;50.816;12.828;2023-09-19T00:13:04;97105.81;;;15.92;100.00
30081;BME280;16902;50.816;12.828;2023-09-19T00:18:09;97093.34;;;16.11;100.00
30081;BME280;16902;50.816;12.828;2023-09-19T00:23:11;97090.78;;;16.28;100.00
30081;BME280;16902;50.816;12.828;2023-09-19T00:28:13;97095.56;;;16.31;100.00
30081;BME280;16902;50.816;12.828;2023-09-19T00:33:16;97094.19;;;16.29;100.00
30081;BME280;16902;50.816;12.828;2023-09-19T00:38:19;97098.06;;;16.38;100.00
30081;BME280;16902;50.816;12.828;2023-09-19T00:43:28;97106.44;;;16.35;100.00
30081;BME280;16902;50.816;12.828;2023-09-19T00:48:30;97110.66;;;16.36;100.00
30081;BME280;16902;50.816;12.828;2023-09-19T00:53:32;97107.31;;;16.40;100.00
30081;BME280;16902;50.816;12.828;2023-09-19T00:58:36;97103.41;;;16.43;100.00
30081;BME280;16902;50.816;12.828;2023-09-19T01:03:39;97100.78;;;16.43;100.00
30081;BME280;16902;50.816;12.828;2023-09-19T01:08:42;97106.75;;;16.38;100.00
30081;BME280;16902;50.816;12.828;2023-09-19T01:13:58;97117.16;;;16.33;100.00
30081;BME280;16902;50.816;12.828;2023-09-19T01:29:46;97137.59;;;16.19;100.00
30081;BME280;16902;50.816;12.828;2023-09-19T01:39:55;97125.50;;;16.18;100.00
30081;BME280;16902;50.816;12.828;2023-09-19T01:51:02;97141.75;;;16.15;100.00
30081;BME280;16902;50.816;12.828;2023-09-19T01:56:08;97149.16;;;16.07;100.00
30081;BME280;16902;50.816;12.828;2023-09-19T02:01:19;97138.09;;;16.05;100.00
30081;BME280;16902;50.816;12.828;2023-09-19T02:06:22;97135.13;;;16.01;100.00
30081;BME280;16902;50.816;12.828;2023-09-19T02:11:25;97139.25;;;15.97;100.00
30081;BME280;16902;50.816;12.828;2023-09-19T02:16:27;97148.25;;;15.89;100.00
30081;BME280;16902;50.816;12.828;2023-09-19T02:21:30;97153.97;;;15.86;100.00
30081;BME280;16902;50.816;12.828;2023-09-19T02:26:32;97160.22;;;15.85;100.00
30081;BME280;16902;50.816;12.828;2023-09-19T02:31:37;97159.66;;;15.83;100.00
30081;BME280;16902;50.816;12.828;2023-09-19T02:36:39;97160.47;;;15.84;100.00
30081;BME280;16902;50.816;12.828;2023-09-19T02:41:41;97159.78;;;15.77;100.00
30081;BME280;16902;50.816;12.828;2023-09-19T02:46:44;97173.59;;;15.72;100.00
30081;BME280;16902;50.816;12.828;2023-09-19T02:51:46;97186.13;;;15.70;100.00
30081;BME280;16902;50.816;12.828;2023-09-19T02:56:49;97192.38;;;15.57;100.00
30081;BME280;16902;50.816;12.828;2023-09-19T03:01:51;97186.22;;;15.63;100.00
30081;BME280;16902;50.816;12.828;2023-09-19T03:06:53;97188.25;;;15.61;100.00
30081;BME280;16902;50.816;12.828;2023-09-19T03:12:01;97202.84;;;15.57;100.00
30081;BME280;16902;50.816;12.828;2023-09-19T03:17:03;97203.19;;;15.61;100.00
30081;BME280;16902;50.816;12.828;2023-09-19T03:22:08;97199.56;;;15.62;100.00
30081;BME280;16902;50.816;12.828;2023-09-19T03:27:10;97201.81;;;15.58;100.00
30081;BME280;16902;50.816;12.828;2023-09-19T03:32:12;97204.19;;;15.48;100.00
30081;BME280;16902;50.816;12.828;2023-09-19T03:37:15;97220.25;;;15.40;100.00
30081;BME280;16902;50.816;12.828;2023-09-19T03:42:16;97210.72;;;15.27;100.00
30081;BME280;16902;50.816;12.828;2023-09-19T03:47:18;97210.16;;;15.25;100.00
30081;BME280;16902;50.816;12.828;2023-09-19T03:52:21;97203.19;;;15.19;100.00
30081;BME280;16902;50.816;12.828;2023-09-19T03:57:23;97207.84;;;15.17;100.00
30081;BME280;16902;50.816;12.828;2023-09-19T04:02:25;97193.38;;;15.14;100.00
30081;BME280;16902;50.816;12.828;2023-09-19T04:07:27;97200.22;;;15.15;100.00
30081;BME280;16902;50.816;12.828;2023-09-19T04:12:30;97198.03;;;15.12;100.00
30081;BME280;16902;50.816;12.828;2023-09-19T04:17:33;97210.13;;;15.13;100.00
30081;BME280;16902;50.816;12.828;2023-09-19T04:22:35;97222.06;;;15.09;100.00
30081;BME280;16902;50.816;12.828;2023-09-19T04:27:37;97217.38;;;15.00;100.00
30081;BME280;16902;50.816;12.828;2023-09-19T04:32:39;97231.41;;;15.05;100.00
30081;BME280;16902;50.816;12.828;2023-09-19T04:37:41;97240.72;;;15.01;100.00
30081;BME280;16902;50.816;12.828;2023-09-19T04:42:43;97250.66;;;14.99;100.00
30081;BME280;16902;50.816;12.828;2023-09-19T04:47:45;97254.47;;;15.15;100.00
30081;BME280;16902;50.816;12.828;2023-09-19T04:52:51;97258.69;;;15.16;100.00
30081;BME280;16902;50.816;12.828;2023-09-19T04:57:53;97266.28;;;15.06;100.00
30081;BME280;16902;50.816;12.828;2023-09-19T05:02:56;97263.16;;;14.97;100.00
30081;BME280;16902;50.816;12.828;2023-09-19T05:07:58;97267.59;;;14.97;100.00
30081;BME280;16902;50.816;12.828;2023-09-19T05:13:06;97271.16;;;14.84;100.00
30081;BME280;16902;50.816;12.828;2023-09-19T05:18:09;97282.81;;;14.88;100.00
30081;BME280;16902;50.816;12.828;2023-09-19T05:23:12;97279.75;;;14.91;100.00
30081;BME280;16902;50.816;12.828;2023-09-19T05:28:14;97276.72;;;14.94;100.00
30081;BME280;16902;50.816;12.828;2023-09-19T05:33:16;97292.22;;;14.96;100.00
30081;BME280;16902;50.816;12.828;2023-09-19T05:38:19;97293.91;;;14.90;100.00
30081;BME280;16902;50.816;12.828;2023-09-19T05:43:21;97300.00;;;15.02;100.00
30081;BME280;16902;50.816;12.828;2023-09-19T05:48:23;97309.81;;;15.07;100.00
30081;BME280;16902;50.816;12.828;2023-09-19T05:53:25;97310.06;;;15.05;100.00
30081;BME280;16902;50.816;12.828;2023-09-19T05:58:27;97316.38;;;14.98;100.00
30081;BME280;16902;50.816;12.828;2023-09-19T06:03:28;97324.16;;;15.23;100.00
30081;BME280;16902;50.816;12.828;2023-09-19T06:08:32;97327.78;;;15.40;100.00
30081;BME280;16902;50.816;12.828;2023-09-19T06:13:35;97340.09;;;15.58;100.00
30081;BME280;16902;50.816;12.828;2023-09-19T06:18:37;97336.63;;;15.76;100.00
30081;BME280;16902;50.816;12.828;2023-09-19T06:23:38;97334.38;;;15.79;100.00
30081;BME280;16902;50.816;12.828;2023-09-19T06:28:41;97349.41;;;16.02;100.00
30081;BME280;16902;50.816;12.828;2023-09-19T06:33:44;97347.47;;;16.09;100.00
30081;BME280;16902;50.816;12.828;2023-09-19T06:38:46;97357.84;;;16.04;100.00
30081;BME280;16902;50.816;12.828;2023-09-19T06:43:48;97356.13;;;15.98;100.00
30081;BME280;16902;50.816;12.828;2023-09-19T06:48:50;97368.72;;;16.19;100.00
30081;BME280;16902;50.816;12.828;2023-09-19T06:53:53;97373.47;;;16.53;100.00
30081;BME280;16902;50.816;12.828;2023-09-19T06:58:55;97379.16;;;16.80;100.00
30081;BME280;16902;50.816;12.828;2023-09-19T07:03:57;97393.56;;;16.89;100.00
30081;BME280;16902;50.816;12.828;2023-09-19T07:08:59;97380.69;;;16.57;100.00
30081;BME280;16902;50.816;12.828;2023-09-19T07:14:01;97404.94;;;16.59;100.00
30081;BME280;16902;50.816;12.828;2023-09-19T07:19:05;97407.59;;;17.18;100.00
30081;BME280;16902;50.816;12.828;2023-09-19T07:24:07;97409.31;;;17.24;100.00
30081;BME280;16902;50.816;12.828;2023-09-19T07:29:09;97418.69;;;17.20;100.00
30081;BME280;16902;50.816;12.828;2023-09-19T07:34:11;97411.38;;;17.10;100.00
30081;BME280;16902;50.816;12.828;2023-09-19T07:39:13;97420.53;;;17.08;100.00
30081;BME280;16902;50.816;12.828;2023-09-19T07:44:24;97414.13;;;17.27;100.00
30081;BME280;16902;50.816;12.828;2023-09-19T07:49:27;97425.09;;;17.88;100.00
30081;BME280;16902;50.816;12.828;2023-09-19T07:54:29;97425.41;;;18.48;100.00
30081;BME280;16902;50.816;12.828;2023-09-19T07:59:38;97442.22;;;18.93;100.00
30081;BME280;16902;50.816;12.828;2023-09-19T08:04:40;97436.03;;;19.21;100.00
30081;BME280;16902;50.816;12.828;2023-09-19T08:09:42;97439.34;;;19.33;100.00
30081;BME280;16902;50.816;12.828;2023-09-19T08:14:47;97449.44;;;19.36;100.00
30081;BME280;16902;50.816;12.828;2023-09-19T08:19:49;97453.13;;;19.35;100.00
30081;BME280;16902;50.816;12.828;2023-09-19T08:24:54;97466.06;;;19.54;100.00
30081;BME280;16902;50.816;12.828;2023-09-19T08:29:57;97472.03;;;18.77;100.00
30081;BME280;16902;50.816;12.828;2023-09-19T08:34:59;97466.47;;;19.29;100.00
30081;BME280;16902;50.816;12.828;2023-09-19T08:40:01;97466.34;;;19.74;100.00
30081;BME280;16902;50.816;12.828;2023-09-19T08:45:04;97466.91;;;19.98;100.00
30081;BME280;16902;50.816;12.828;2023-09-19T08:50:21;97467.63;;;19.71;100.00
30081;BME280;16902;50.816;12.828;2023-09-19T08:55:27;97478.88;;;19.45;100.00
30081;BME280;16902;50.816;12.828;2023-09-19T09:00:30;97479.09;;;19.60;100.00
30081;BME280;16902;50.816;12.828;2023-09-19T09:05:32;97481.81;;;19.65;100.00
30081;BME280;16902;50.816;12.828;2023-09-19T09:10:37;97488.38;;;20.28;100.00
30081;BME280;16902;50.816;12.828;2023-09-19T09:15:40;97498.22;;;19.50;100.00
30081;BME280;16902;50.816;12.828;2023-09-19T09:20:42;97492.44;;;18.81;100.00
30081;BME280;16902;50.816;12.828;2023-09-19T09:25:50;97503.44;;;18.78;100.00
30081;BME280;16902;50.816;12.828;2023-09-19T09:31:04;97504.34;;;18.55;100.00
30081;BME280;16902;50.816;12.828;2023-09-19T09:36:09;97515.69;;;19.18;100.00
30081;BME280;16902;50.816;12.828;2023-09-19T09:41:17;97512.88;;;19.41;100.00
30081;BME280;16902;50.816;12.828;2023-09-19T09:46:29;97519.09;;;19.91;100.00
30081;BME280;16902;50.816;12.828;2023-09-19T09:51:31;97519.78;;;20.25;100.00
30081;BME280;16902;50.816;12.828;2023-09-19T09:56:33;97514.34;;;19.88;80.81
30081;BME280;16902;50.816;12.828;2023-09-19T10:01:48;97519.84;;;20.52;75.17
30081;BME280;16902;50.816;12.828;2023-09-19T10:06:51;97514.56;;;20.52;70.04
30081;BME280;16902;50.816;12.828;2023-09-19T10:12:09;97514.41;;;20.96;66.89
30081;BME280;16902;50.816;12.828;2023-09-19T10:17:15;97519.78;;;20.47;60.46
30081;BME280;16902;50.816;12.828;2023-09-19T10:22:22;97521.25;;;20.38;62.62
30081;BME280;16902;50.816;12.828;2023-09-19T10:27:26;97513.59;;;20.63;61.28
30081;BME280;16902;50.816;12.828;2023-09-19T10:32:28;97510.03;;;21.12;59.17
30081;BME280;16902;50.816;12.828;2023-09-19T10:37:35;97534.88;;;21.33;58.88
30081;BME280;16902;50.816;12.828;2023-09-19T10:42:40;97525.31;;;21.32;58.27
30081;BME280;16902;50.816;12.828;2023-09-19T10:47:43;97519.13;;;21.21;60.79
30081;BME280;16902;50.816;12.828;2023-09-19T10:52:45;97520.66;;;20.79;60.43
30081;BME280;16902;50.816;12.828;2023-09-19T10:57:48;97516.97;;;20.86;59.51
30081;BME280;16902;50.816;12.828;2023-09-19T11:08:16;97512.28;;;21.30;56.94
30081;BME280;16902;50.816;12.828;2023-09-19T11:13:29;97525.09;;;20.79;55.05
30081;BME280;16902;50.816;12.828;2023-09-19T11:29:30;97516.88;;;22.55;51.14
30081;BME280;16902;50.816;12.828;2023-09-19T11:39:37;97509.47;;;22.62;51.86
30081;BME280;16902;50.816;12.828;2023-09-19T11:44:45;97509.25;;;21.43;55.56
30081;BME280;16902;50.816;12.828;2023-09-19T11:49:47;97504.22;;;22.04;54.58
30081;BME280;16902;50.816;12.828;2023-09-19T11:54:56;97516.75;;;21.57;54.12
30081;BME280;16902;50.816;12.828;2023-09-19T11:59:59;97519.09;;;22.00;53.89
30081;BME280;16902;50.816;12.828;2023-09-19T12:05:00;97518.47;;;21.41;51.56
30081;BME280;16902;50.816;12.828;2023-09-19T12:10:04;97523.44;;;21.69;48.73
30081;BME280;16902;50.816;12.828;2023-09-19T12:15:07;97510.75;;;21.76;47.71
30081;BME280;16902;50.816;12.828;2023-09-19T12:20:09;97509.34;;;22.11;45.64
30081;BME280;16902;50.816;12.828;2023-09-19T12:25:15;97501.75;;;22.40;47.45
30081;BME280;16902;50.816;12.828;2023-09-19T12:30:19;97497.00;;;23.44;46.54
30081;BME280;16902;50.816;12.828;2023-09-19T12:35:29;97512.81;;;25.28;44.45
30081;BME280;16902;50.816;12.828;2023-09-19T12:40:32;97502.66;;;24.07;45.46
30081;BME280;16902;50.816;12.828;2023-09-19T12:45:35;97501.75;;;23.73;46.65
30081;BME280;16902;50.816;12.828;2023-09-19T12:51:02;97501.78;;;24.27;45.59
30081;BME280;16902;50.816;12.828;2023-09-19T12:56:17;97491.63;;;24.79;45.45
30081;BME280;16902;50.816;12.828;2023-09-19T13:01:20;97506.97;;;23.93;45.99
30081;BME280;16902;50.816;12.828;2023-09-19T13:06:35;97487.66;;;23.62;45.16
30081;BME280;16902;50.816;12.828;2023-09-19T13:11:41;97495.72;;;24.11;42.54
30081;BME280;16902;50.816;12.828;2023-09-19T13:17:07;97502.38;;;24.14;44.01
30081;BME280;16902;50.816;12.828;2023-09-19T13:22:42;97496.69;;;23.61;44.14
30081;BME280;16902;50.816;12.828;2023-09-19T13:27:54;97493.81;;;23.47;44.60
30081;BME280;16902;50.816;12.828;2023-09-19T13:33:08;97489.31;;;23.32;45.63
30081;BME280;16902;50.816;12.828;2023-09-19T13:38:11;97496.16;;;22.37;47.06
30081;BME280;16902;50.816;12.828;2023-09-19T13:43:14;97501.25;;;22.58;46.65
30081;BME280;16902;50.816;12.828;2023-09-19T13:48:15;97484.78;;;22.56;46.55
30081;BME280;16902;50.816;12.828;2023-09-19T13:53:17;97489.34;;;23.22;45.03
30081;BME280;16902;50.816;12.828;2023-09-19T13:58:19;97493.06;;;22.96;45.25
30081;BME280;16902;50.816;12.828;2023-09-19T14:03:22;97490.03;;;22.26;46.58
30081;BME280;16902;50.816;12.828;2023-09-19T14:08:25;97497.00;;;21.85;48.33
30081;BME280;16902;50.816;12.828;2023-09-19T14:13:27;97486.94;;;21.87;46.79
30081;BME280;16902;50.816;12.828;2023-09-19T14:18:29;97486.50;;;22.05;47.68
30081;BME280;16902;50.816;12.828;2023-09-19T14:23:38;97481.31;;;22.36;46.97
30081;BME280;16902;50.816;12.828;2023-09-19T14:28:39;97494.75;;;22.14;46.59
30081;BME280;16902;50.816;12.828;2023-09-19T14:33:42;97486.28;;;22.12;45.36
30081;BME280;16902;50.816;12.828;2023-09-19T14:38:43;97498.50;;;22.23;44.08
30081;BME280;16902;50.816;12.828;2023-09-19T14:43:45;97485.50;;;21.59;45.21
30081;BME280;16902;50.816;12.828;2023-09-19T14:48:47;97477.50;;;21.16;47.80
30081;BME280;16902;50.816;12.828;2023-09-19T14:53:49;97480.09;;;21.06;46.43
30081;BME280;16902;50.816;12.828;2023-09-19T14:58:51;97482.19;;;20.72;47.81
30081;BME280;16902;50.816;12.828;2023-09-19T15:03:52;97497.13;;;20.34;48.48
30081;BME280;16902;50.816;12.828;2023-09-19T15:08:56;97488.16;;;20.08;49.29
30081;BME280;16902;50.816;12.828;2023-09-19T15:13:58;97480.16;;;20.03;48.32
30081;BME280;16902;50.816;12.828;2023-09-19T15:19:00;97475.03;;;19.96;48.69
30081;BME280;16902;50.816;12.828;2023-09-19T15:24:02;97474.50;;;19.94;48.75
30081;BME280;16902;50.816;12.828;2023-09-19T15:29:05;97480.78;;;19.88;49.22
30081;BME280;16902;50.816;12.828;2023-09-19T15:34:07;97481.16;;;19.97;49.69
30081;BME280;16902;50.816;12.828;2023-09-19T15:39:10;97482.63;;;19.88;48.57
30081;BME280;16902;50.816;12.828;2023-09-19T15:44:17;97492.63;;;19.64;47.84
30081;BME280;16902;50.816;12.828;2023-09-19T15:49:20;97485.44;;;19.42;46.50
30081;BME280;16902;50.816;12.828;2023-09-19T15:54:24;97478.88;;;19.28;47.19
30081;BME280;16902;50.816;12.828;2023-09-19T15:59:26;97476.81;;;19.13;48.09
30081;BME280;16902;50.816;12.828;2023-09-19T16:04:28;97475.09;;;19.02;48.24
30081;BME280;16902;50.816;12.828;2023-09-19T16:09:30;97472.75;;;18.89;48.68
30081;BME280;16902;50.816;12.828;2023-09-19T16:14:31;97484.44;;;18.76;48.93
30081;BME280;16902;50.816;12.828;2023-09-19T16:19:33;97492.75;;;18.56;49.32
30081;BME280;16902;50.816;12.828;2023-09-19T16:24:35;97485.06;;;18.55;48.44
30081;BME280;16902;50.816;12.828;2023-09-19T16:29:37;97481.22;;;18.45;49.27
30081;BME280;16902;50.816;12.828;2023-09-19T16:34:38;97485.97;;;18.32;49.47
30081;BME280;16902;50.816;12.828;2023-09-19T16:39:40;97479.63;;;18.16;50.85
30081;BME280;16902;50.816;12.828;2023-09-19T16:44:44;97493.75;;;18.10;50.89
30081;BME280;16902;50.816;12.828;2023-09-19T16:49:46;97492.28;;;18.02;52.10
30081;BME280;16902;50.816;12.828;2023-09-19T16:54:48;97497.47;;;17.85;53.12
30081;BME280;16902;50.816;12.828;2023-09-19T16:59:49;97498.75;;;17.71;54.42
30081;BME280;16902;50.816;12.828;2023-09-19T17:04:51;97497.94;;;17.59;55.65
30081;BME280;16902;50.816;12.828;2023-09-19T17:09:53;97488.69;;;17.44;56.90
30081;BME280;16902;50.816;12.828;2023-09-19T17:14:56;97490.28;;;17.34;58.03
30081;BME280;16902;50.816;12.828;2023-09-19T17:19:58;97489.72;;;17.20;60.47
30081;BME280;16902;50.816;12.828;2023-09-19T17:25:00;97486.16;;;17.14;63.78
30081;BME280;16902;50.816;12.828;2023-09-19T17:30:03;97485.03;;;16.99;70.01
30081;BME280;16902;50.816;12.828;2023-09-19T17:35:07;97481.25;;;16.83;78.29
30081;BME280;16902;50.816;12.828;2023-09-19T17:40:10;97492.00;;;16.63;92.65
30081;BME280;16902;50.816;12.828;2023-09-19T17:45:12;97509.66;;;16.44;100.00
30081;BME280;16902;50.816;12.828;2023-09-19T17:50:17;97512.88;;;16.46;100.00
30081;BME280;16902;50.816;12.828;2023-09-19T17:55:19;97518.09;;;16.16;100.00
30081;BME280;16902;50.816;12.828;2023-09-19T18:00:20;97525.63;;;15.76;100.00
30081;BME280;16902;50.816;12.828;2023-09-19T18:05:23;97537.53;;;15.53;100.00
30081;BME280;16902;50.816;12.828;2023-09-19T18:10:24;97530.50;;;15.47;100.00
30081;BME280;16902;50.816;12.828;2023-09-19T18:15:27;97530.97;;;15.44;100.00
30081;BME280;16902;50.816;12.828;2023-09-19T18:20:34;97546.34;;;15.15;100.00
30081;BME280;16902;50.816;12.828;2023-09-19T18:25:36;97539.81;;;15.00;100.00
30081;BME280;16902;50.816;12.828;2023-09-19T18:30:39;97545.34;;;14.85;100.00
30081;BME280;16902;50.816;12.828;2023-09-19T18:35:41;97550.34;;;14.55;100.00
30081;BME280;16902;50.816;12.828;2023-09-19T18:40:43;97551.56;;;14.07;100.00
30081;BME280;16902;50.816;12.828;2023-09-19T18:45:54;97552.66;;;13.67;100.00
30081;BME280;16902;50.816;12.828;2023-09-19T18:50:57;97544.06;;;13.26;100.00
30081;BME280;16902;50.816;12.828;2023-09-19T18:56:07;97549.44;;;12.98;100.00
30081;BME280;16902;50.816;12.828;2023-09-19T19:01:10;97571.53;;;12.82;100.00
30081;BME280;16902;50.816;12.828;2023-09-19T19:06:14;97577.31;;;12.65;100.00
30081;BME280;16902;50.816;12.828;2023-09-19T19:11:17;97590.31;;;12.51;100.00
30081;BME280;16902;50.816;12.828;2023-09-19T19:16:21;97581.63;;;12.38;100.00
30081;BME280;16902;50.816;12.828;2023-09-19T19:21:23;97581.63;;;12.38;100.00
30081;BME280;16902;50.816;12.828;2023-09-19T19:26:25;97581.63;;;12.31;100.00
30081;BME280;16902;50.816;12.828;2023-09-19T19:31:28;97588.41;;;12.19;100.00
30081;BME280;16902;50.816;12.828;2023-09-19T19:36:31;97595.75;;;12.02;100.00
30081;BME280;16902;50.816;12.828;2023-09-19T19:41:35;97587.88;;;11.95;100.00
30081;BME280;16902;50.816;12.828;2023-09-19T19:46:40;97588.06;;;11.94;100.00
30081;BME280;16902;50.816;12.828;2023-09-19T19:51:41;97603.91;;;11.92;100.00
30081;BME280;16902;50.816;12.828;2023-09-19T19:56:46;97610.22;;;11.76;100.00
30081;BME280;16902;50.816;12.828;2023-09-19T20:01:48;97612.72;;;11.63;100.00
30081;BME280;16902;50.816;12.828;2023-09-19T20:06:50;97624.69;;;11.51;100.00
30081;BME280;16902;50.816;12.828;2023-09-19T20:11:52;97616.59;;;11.46;100.00
30081;BME280;16902;50.816;12.828;2023-09-19T20:16:56;97615.94;;;11.65;100.00
30081;BME280;16902;50.816;12.828;2023-09-19T20:22:00;97611.78;;;11.71;100.00
30081;BME280;16902;50.816;12.828;2023-09-19T20:27:03;97608.84;;;11.80;100.00
30081;BME280;16902;50.816;12.828;2023-09-19T20:32:08;97612.13;;;11.89;100.00
30081;BME280;16902;50.816;12.828;2023-09-19T20:37:10;97609.19;;;11.71;100.00
30081;BME280;16902;50.816;12.828;2023-09-19T20:42:12;97610.72;;;11.65;100.00
30081;BME280;16902;50.816;12.828;2023-09-19T20:47:14;97598.44;;;11.59;100.00
30081;BME280;16902;50.816;12.828;2023-09-19T20:52:16;97601.44;;;11.56;100.00
30081;BME280;16902;50.816;12.828;2023-09-19T20:57:18;97602.63;;;11.53;100.00
30081;BME280;16902;50.816;12.828;2023-09-19T21:02:19;97595.09;;;11.37;100.00
30081;BME280;16902;50.816;12.828;2023-09-19T21:07:21;97590.81;;;11.29;100.00
30081;BME280;16902;50.816;12.828;2023-09-19T21:12:25;97596.38;;;11.26;100.00
30081;BME280;16902;50.816;12.828;2023-09-19T21:17:27;97596.78;;;11.23;100.00
30081;BME280;16902;50.816;12.828;2023-09-19T21:22:29;97593.50;;;11.15;100.00
30081;BME280;16902;50.816;12.828;2023-09-19T21:27:30;97598.16;;;10.98;100.00
30081;BME280;16902;50.816;12.828;2023-09-19T21:32:32;97589.16;;;10.79;100.00
30081;BME280;16902;50.816;12.828;2023-09-19T21:37:35;97591.16;;;10.62;100.00
30081;BME280;16902;50.816;12.828;2023-09-19T21:42:36;97589.50;;;10.54;100.00
30081;BME280;16902;50.816;12.828;2023-09-19T21:47:38;97596.94;;;10.43;100.00
30081;BME280;16902;50.816;12.828;2023-09-19T21:52:40;97583.06;;;10.36;100.00
30081;BME280;16902;50.816;12.828;2023-09-19T21:57:42;97576.34;;;10.26;100.00
30081;BME280;16902;50.816;12.828;2023-09-19T22:02:44;97576.69;;;10.23;100.00
30081;BME280;16902;50.816;12.828;2023-09-19T22:07:46;97567.09;;;10.24;100.00
30081;BME280;16902;50.816;12.828;2023-09-19T22:12:48;97570.34;;;10.11;100.00
30081;BME280;16902;50.816;12.828;2023-09-19T22:17:50;97567.28;;;10.08;100.00
30081;BME280;16902;50.816;12.828;2023-09-19T22:22:53;97563.78;;;10.00;100.00
30081;BME280;16902;50.816;12.828;2023-09-19T22:27:57;97561.63;;;9.89;100.00
30081;BME280;16902;50.816;12.828;2023-09-19T22:32:59;97561.56;;;9.83;100.00
30081;BME280;16902;50.816;12.828;2023-09-19T22:38:02;97549.97;;;9.85;100.00
30081;BME280;16902;50.816;12.828;2023-09-19T22:43:15;97565.31;;;9.80;100.00
30081;BME280;16902;50.816;12.828;2023-09-19T22:48:19;97557.44;;;9.73;100.00
30081;BME280;16902;50.816;12.828;2023-09-19T22:53:25;97562.09;;;9.63;100.00
30081;BME280;16902;50.816;12.828;2023-09-19T22:58:28;97554.56;;;9.53;100.00
30081;BME280;16902;50.816;12.828;2023-09-19T23:03:31;97555.72;;;9.51;100.00
30081;BME280;16902;50.816;12.828;2023-09-19T23:08:34;97547.09;;;9.50;100.00
30081;BME280;16902;50.816;12.828;2023-09-19T23:13:35;97548.19;;;9.56;100.00
30081;BME280;16902;50.816;12.828;2023-09-19T23:18:40;97543.97;;;9.55;100.00
30081;BME280;16902;50.816;12.828;2023-09-19T23:23:44;97538.31;;;9.51;100.00
30081;BME280;16902;50.816;12.828;2023-09-19T23:28:48;97550.06;;;9.47;100.00
30081;BME280;16902;50.816;12.828;2023-09-19T23:33:51;97557.22;;;9.45;100.00
30081;BME280;16902;50.816;12.828;2023-09-19T23:38:53;97554.34;;;9.40;100.00
30081;BME280;16902;50.816;12.828;2023-09-19T23:43:59;97553.81;;;9.45;100.00
30081;BME280;16902;50.816;12.828;2023-09-19T23:49:01;97561.28;;;9.92;100.00
30081;BME280;16902;50.816;12.828;2023-09-19T23:54:04;97558.81;;;10.50;100.00
30081;BME280;16902;50.816;12.828;2023-09-19T23:59:07;97564.03;;;10.50;100.00
